Time;durP1;ratioP1;P1;durP2;ratioP2;P2;SDS_P1;SDS_P2;PMS_P1;PMS_P2;Temp;Humidity;BMP_temperature;BMP_pressure;BME280_temperature;BME280_humidity;BME280_pressure;Samples;Min_cycle;Max_cycle;Signal;HPM_P1;HPM_P2
2021/07/01 00:00:22;;;;;;;6.90;5.50;;;;;;;;;;480389;247;29623;-73
2021/07/01 00:02:25;;;;;;;5.50;5.00;;;;;;;;;;480402;247;27554;-73
2021/07/01 00:04:27;;;;;;;6.27;5.40;;;;;;;;;;480384;247;28052;-72
2021/07/01 00:06:29;;;;;;;7.90;7.10;;;;;;;;;;480210;247;28098;-73
2021/07/01 00:08:31;;;;;;;8.13;6.40;;;;;;;;;;480396;247;27570;-72
2021/07/01 00:10:33;;;;;;;6.50;5.90;;;;;;;;;;480350;247;28004;-73
2021/07/01 00:12:35;;;;;;;6.50;5.90;;;;;;;;;;480388;247;27672;-73
2021/07/01 00:14:37;;;;;;;5.80;5.20;;;;;;;;;;480382;247;27660;-72
2021/07/01 00:16:39;;;;;;;6.87;6.17;;;;;;;;;;480377;247;27676;-73
2021/07/01 00:18:41;;;;;;;7.00;5.60;;;;;;;;;;480406;247;27528;-73
2021/07/01 00:20:44;;;;;;;6.80;6.07;;;;;;;;;;480386;247;27551;-72
2021/07/01 00:22:46;;;;;;;5.87;5.30;;;;;;;;;;480379;247;28893;-73
2021/07/01 00:24:48;;;;;;;6.57;5.23;;;;;;;;;;480362;247;28195;-73
2021/07/01 00:26:50;;;;;;;6.53;5.77;;;;;;;;;;480407;247;27747;-73
2021/07/01 00:28:52;;;;;;;6.10;5.33;;;;;;;;;;480382;247;28246;-72
2021/07/01 00:30:54;;;;;;;6.90;5.60;;;;;;;;;;480375;247;28027;-72
2021/07/01 00:32:56;;;;;;;6.50;5.80;;;;;;;;;;480359;247;28622;-73
2021/07/01 00:34:58;;;;;;;7.27;6.57;;;;;;;;;;480378;247;27617;-73
2021/07/01 00:37:00;;;;;;;9.97;6.40;;;;;;;;;;480367;247;27529;-73
2021/07/01 00:39:03;;;;;;;8.07;7.13;;;;;;;;;;480391;247;27997;-72
2021/07/01 00:41:05;;;;;;;9.33;6.60;;;;;;;;;;480400;247;28198;-73
2021/07/01 00:43:07;;;;;;;10.23;7.27;;;;;;;;;;480412;247;28921;-73
2021/07/01 00:45:09;;;;;;;7.50;6.73;;;;;;;;;;480356;247;28187;-72
2021/07/01 00:47:11;;;;;;;8.23;7.30;;;;;;;;;;480390;247;27985;-72
2021/07/01 00:49:13;;;;;;;8.17;6.80;;;;;;;;;;480391;247;28424;-73
2021/07/01 00:51:17;;;;;;;7.87;6.70;;;;;;;;;;480390;247;27637;-72
2021/07/01 00:53:17;;;;;;;7.53;6.33;;;;;;;;;;480330;242;28717;-73
2021/07/01 00:55:20;;;;;;;8.90;8.00;;;;;;;;;;480399;247;28572;-73
2021/07/01 00:57:22;;;;;;;7.10;6.37;;;;;;;;;;480292;247;27676;-72
2021/07/01 00:59:24;;;;;;;8.97;7.50;;;;;;;;;;480402;247;27679;-73
2021/07/01 01:01:26;;;;;;;9.60;7.03;;;;;;;;;;480405;247;28017;-73
2021/07/01 01:03:28;;;;;;;9.10;6.93;;;;;;;;;;480378;247;27539;-72
2021/07/01 01:05:30;;;;;;;9.27;7.30;;;;;;;;;;480332;247;27970;-73
2021/07/01 01:07:32;;;;;;;14.10;7.47;;;;;;;;;;480386;247;27743;-72
2021/07/01 01:09:34;;;;;;;9.23;7.60;;;;;;;;;;480369;247;27647;-74
2021/07/01 01:11:36;;;;;;;7.20;6.50;;;;;;;;;;480323;247;27660;-73
2021/07/01 01:13:39;;;;;;;10.10;7.20;;;;;;;;;;480383;247;27652;-73
2021/07/01 01:15:41;;;;;;;7.93;6.50;;;;;;;;;;480403;247;27735;-73
2021/07/01 01:17:44;;;;;;;9.20;7.07;;;;;;;;;;480412;247;27530;-73
2021/07/01 01:19:45;;;;;;;7.83;5.87;;;;;;;;;;480329;247;27720;-73
2021/07/01 01:21:47;;;;;;;8.03;7.03;;;;;;;;;;480386;247;28785;-73
2021/07/01 01:23:49;;;;;;;8.83;7.53;;;;;;;;;;480389;247;28116;-73
2021/07/01 01:25:51;;;;;;;7.77;6.73;;;;;;;;;;480384;247;27625;-73
2021/07/01 01:27:53;;;;;;;10.13;6.87;;;;;;;;;;480406;247;28430;-73
2021/07/01 01:29:55;;;;;;;8.17;6.87;;;;;;;;;;480392;247;27496;-73
2021/07/01 01:31:58;;;;;;;7.13;6.40;;;;;;;;;;480403;247;28175;-73
2021/07/01 01:34:00;;;;;;;6.53;5.57;;;;;;;;;;480388;247;27847;-73
2021/07/01 01:36:02;;;;;;;6.77;5.93;;;;;;;;;;480416;247;28108;-73
2021/07/01 01:38:04;;;;;;;7.17;6.47;;;;;;;;;;480384;247;27652;-74
2021/07/01 01:40:06;;;;;;;6.40;5.80;;;;;;;;;;480326;247;28417;-73
2021/07/01 01:42:08;;;;;;;6.47;5.87;;;;;;;;;;480393;247;27926;-73
2021/07/01 01:44:10;;;;;;;6.27;5.70;;;;;;;;;;480387;247;28525;-73
2021/07/01 01:46:12;;;;;;;6.77;6.17;;;;;;;;;;480422;247;27996;-73
2021/07/01 01:48:15;;;;;;;7.17;6.20;;;;;;;;;;480339;247;29140;-73
2021/07/01 01:50:17;;;;;;;7.40;6.13;;;;;;;;;;480398;247;27621;-73
2021/07/01 01:52:19;;;;;;;7.40;5.70;;;;;;;;;;480398;247;28929;-73
2021/07/01 01:54:21;;;;;;;6.40;5.80;;;;;;;;;;480302;247;28874;-73
2021/07/01 01:56:23;;;;;;;6.67;5.93;;;;;;;;;;480412;247;28097;-73
2021/07/01 01:58:25;;;;;;;7.23;6.40;;;;;;;;;;480388;247;29082;-72
2021/07/01 02:00:27;;;;;;;5.60;5.10;;;;;;;;;;480414;247;28803;-73
2021/07/01 02:02:29;;;;;;;6.53;5.93;;;;;;;;;;480397;247;29152;-73
2021/07/01 02:04:32;;;;;;;5.50;5.00;;;;;;;;;;480372;247;28722;-73
2021/07/01 02:06:34;;;;;;;6.50;5.83;;;;;;;;;;480409;247;28895;-73
2021/07/01 02:08:36;;;;;;;6.73;6.03;;;;;;;;;;480377;247;27664;-72
2021/07/01 02:10:38;;;;;;;6.37;5.77;;;;;;;;;;480385;246;28008;-73
2021/07/01 02:12:40;;;;;;;7.53;5.10;;;;;;;;;;480409;247;27674;-72
2021/07/01 02:14:42;;;;;;;6.00;5.40;;;;;;;;;;480288;247;28458;-73
2021/07/01 02:16:44;;;;;;;5.57;5.07;;;;;;;;;;480370;247;27693;-72
2021/07/01 02:18:49;;;;;;;6.57;5.90;;;;;;;;;;480380;247;28235;-73
2021/07/01 02:20:48;;;;;;;6.80;5.20;;;;;;;;;;480232;247;28176;-73
2021/07/01 02:22:51;;;;;;;7.67;5.70;;;;;;;;;;480396;247;27535;-73
2021/07/01 02:24:53;;;;;;;6.37;5.77;;;;;;;;;;480355;247;28535;-72
2021/07/01 02:26:55;;;;;;;6.50;5.90;;;;;;;;;;480364;247;28021;-73
2021/07/01 02:28:57;;;;;;;6.07;5.47;;;;;;;;;;480404;247;28808;-73
2021/07/01 02:30:59;;;;;;;7.07;5.80;;;;;;;;;;480377;247;28971;-73
2021/07/01 02:33:01;;;;;;;5.67;5.17;;;;;;;;;;480396;247;28686;-73
2021/07/01 02:35:03;;;;;;;6.30;5.47;;;;;;;;;;480409;247;28562;-73
2021/07/01 02:37:05;;;;;;;6.60;6.00;;;;;;;;;;480423;247;27856;-72
2021/07/01 02:39:07;;;;;;;5.83;5.33;;;;;;;;;;480382;247;27637;-73
2021/07/01 02:41:10;;;;;;;5.97;5.40;;;;;;;;;;480397;247;28185;-74
2021/07/01 02:43:12;;;;;;;6.13;5.40;;;;;;;;;;480375;246;28082;-73
2021/07/01 02:45:14;;;;;;;6.67;5.40;;;;;;;;;;480417;247;27625;-73
2021/07/01 02:47:16;;;;;;;6.20;5.40;;;;;;;;;;480347;247;27704;-72
2021/07/01 02:49:18;;;;;;;6.20;5.60;;;;;;;;;;480376;247;28036;-73
2021/07/01 02:51:20;;;;;;;6.13;5.53;;;;;;;;;;480400;247;27617;-73
2021/07/01 02:53:22;;;;;;;6.73;6.03;;;;;;;;;;480398;247;28096;-73
2021/07/01 02:55:24;;;;;;;7.10;6.13;;;;;;;;;;480403;247;27660;-72
2021/07/01 02:57:27;;;;;;;6.60;5.97;;;;;;;;;;480210;247;28163;-72
2021/07/01 02:59:29;;;;;;;7.53;5.97;;;;;;;;;;480092;247;27954;-72
2021/07/01 03:01:31;;;;;;;7.70;6.77;;;;;;;;;;480375;247;27984;-73
2021/07/01 03:03:33;;;;;;;6.97;6.37;;;;;;;;;;480398;247;29989;-73
2021/07/01 03:05:35;;;;;;;6.70;5.90;;;;;;;;;;480398;247;28088;-73
2021/07/01 03:07:37;;;;;;;6.60;5.93;;;;;;;;;;480328;247;28606;-73
2021/07/01 03:09:39;;;;;;;6.17;5.20;;;;;;;;;;480389;247;27684;-73
2021/07/01 03:11:41;;;;;;;6.47;5.30;;;;;;;;;;480391;247;29255;-73
2021/07/01 03:13:43;;;;;;;5.40;4.83;;;;;;;;;;480386;247;28026;-72
2021/07/01 03:15:46;;;;;;;6.50;5.40;;;;;;;;;;480383;247;29001;-73
2021/07/01 03:17:48;;;;;;;5.40;4.73;;;;;;;;;;480365;247;28537;-73
2021/07/01 03:19:50;;;;;;;6.27;4.97;;;;;;;;;;480403;247;27983;-73
2021/07/01 03:21:52;;;;;;;6.40;5.20;;;;;;;;;;480398;247;28028;-73
2021/07/01 03:23:54;;;;;;;6.30;5.70;;;;;;;;;;480388;247;28699;-72
2021/07/01 03:25:56;;;;;;;5.93;5.10;;;;;;;;;;480376;247;29139;-73
2021/07/01 03:27:58;;;;;;;6.33;5.20;;;;;;;;;;480379;247;28108;-73
2021/07/01 03:30:00;;;;;;;5.50;4.97;;;;;;;;;;480217;247;28039;-73
2021/07/01 03:32:03;;;;;;;5.30;4.80;;;;;;;;;;480381;247;27954;-73
2021/07/01 03:34:05;;;;;;;4.47;4.07;;;;;;;;;;480394;247;28139;-72
2021/07/01 03:36:07;;;;;;;4.50;4.10;;;;;;;;;;480401;247;28035;-72
2021/07/01 03:38:09;;;;;;;4.30;3.90;;;;;;;;;;480363;247;28614;-73
2021/07/01 03:40:11;;;;;;;5.77;4.43;;;;;;;;;;480409;247;28029;-72
2021/07/01 03:42:13;;;;;;;4.17;3.87;;;;;;;;;;480361;247;28016;-73
2021/07/01 03:44:16;;;;;;;4.17;3.87;;;;;;;;;;480387;247;27551;-72
2021/07/01 03:46:17;;;;;;;5.20;3.80;;;;;;;;;;480299;247;27806;-72
2021/07/01 03:48:21;;;;;;;4.40;4.00;;;;;;;;;;480388;247;27703;-73
2021/07/01 03:50:22;;;;;;;5.00;4.07;;;;;;;;;;480278;247;27631;-73
2021/07/01 03:52:24;;;;;;;4.00;3.70;;;;;;;;;;480415;247;28071;-73
2021/07/01 03:54:26;;;;;;;4.20;3.80;;;;;;;;;;480370;247;27621;-73
2021/07/01 03:56:40;;;;;;;4.27;3.97;;;;;;;;;;480341;242;28425;-72
2021/07/01 03:58:30;;;;;;;3.87;3.17;;;;;;;;;;479407;247;27509;-73
2021/07/01 04:00:32;;;;;;;3.37;3.07;;;;;;;;;;480295;247;28067;-73
2021/07/01 04:02:34;;;;;;;3.70;3.40;;;;;;;;;;480359;242;27621;-73
2021/07/01 04:04:36;;;;;;;2.80;2.60;;;;;;;;;;480349;247;27708;-72
2021/07/01 04:06:38;;;;;;;4.33;3.33;;;;;;;;;;480315;247;27589;-73
2021/07/01 04:08:41;;;;;;;3.20;2.90;;;;;;;;;;480322;247;27632;-72
2021/07/01 04:10:43;;;;;;;3.50;3.20;;;;;;;;;;480327;247;27496;-73
2021/07/01 04:12:45;;;;;;;4.07;3.40;;;;;;;;;;480367;247;27633;-72
2021/07/01 04:14:47;;;;;;;3.77;3.47;;;;;;;;;;480386;242;27495;-72
2021/07/01 04:16:49;;;;;;;4.17;3.27;;;;;;;;;;480358;247;27506;-73
2021/07/01 04:18:51;;;;;;;4.00;3.60;;;;;;;;;;480396;247;27676;-72
2021/07/01 04:20:53;;;;;;;4.50;4.10;;;;;;;;;;480389;247;27554;-73
2021/07/01 04:22:55;;;;;;;4.23;3.87;;;;;;;;;;480402;247;28882;-73
2021/07/01 04:24:58;;;;;;;3.83;3.53;;;;;;;;;;480383;247;28760;-73
2021/07/01 04:27:00;;;;;;;4.80;4.30;;;;;;;;;;480392;247;27764;-73
2021/07/01 04:29:02;;;;;;;3.90;3.50;;;;;;;;;;480373;247;28213;-72
2021/07/01 04:31:04;;;;;;;4.40;4.00;;;;;;;;;;480387;247;27653;-73
2021/07/01 04:33:06;;;;;;;4.60;4.13;;;;;;;;;;480362;247;28077;-72
2021/07/01 04:35:08;;;;;;;5.07;4.57;;;;;;;;;;480373;247;27573;-73
2021/07/01 04:37:10;;;;;;;7.83;4.57;;;;;;;;;;480374;247;27637;-73
2021/07/01 04:39:12;;;;;;;4.60;4.10;;;;;;;;;;480385;247;27538;-73
2021/07/01 04:41:19;;;;;;;4.73;4.33;;;;;;;;;;480335;247;27566;-73
2021/07/01 04:43:17;;;;;;;4.53;4.10;;;;;;;;;;480077;247;27546;-73
2021/07/01 04:45:19;;;;;;;5.40;4.00;;;;;;;;;;480355;247;27708;-73
2021/07/01 04:47:21;;;;;;;4.73;4.33;;;;;;;;;;480335;247;27548;-73
2021/07/01 04:49:23;;;;;;;4.50;4.10;;;;;;;;;;480398;247;28020;-73
2021/07/01 04:51:25;;;;;;;4.67;3.97;;;;;;;;;;480399;247;27668;-73
2021/07/01 04:53:27;;;;;;;4.43;4.00;;;;;;;;;;480351;247;29065;-73
2021/07/01 04:55:29;;;;;;;4.50;4.10;;;;;;;;;;480409;247;27984;-72
2021/07/01 04:57:31;;;;;;;4.87;4.37;;;;;;;;;;480382;247;28137;-73
2021/07/01 04:59:33;;;;;;;4.93;4.43;;;;;;;;;;480355;247;28183;-73
2021/07/01 05:01:36;;;;;;;4.60;4.20;;;;;;;;;;480355;247;28147;-73
2021/07/01 05:03:38;;;;;;;5.20;4.70;;;;;;;;;;480384;247;27699;-73
2021/07/01 05:05:40;;;;;;;5.83;5.33;;;;;;;;;;480235;247;28848;-73
2021/07/01 05:07:42;;;;;;;6.10;5.50;;;;;;;;;;480368;247;27993;-73
2021/07/01 05:09:44;;;;;;;5.03;4.63;;;;;;;;;;480372;247;28865;-73
2021/07/01 05:11:46;;;;;;;4.67;4.30;;;;;;;;;;480375;247;28116;-73
2021/07/01 05:13:48;;;;;;;5.20;4.80;;;;;;;;;;480389;247;27621;-72
2021/07/01 05:15:50;;;;;;;5.33;4.27;;;;;;;;;;480377;247;27524;-72
2021/07/01 05:17:53;;;;;;;4.60;4.20;;;;;;;;;;480403;247;27485;-74
2021/07/01 05:19:55;;;;;;;4.67;4.27;;;;;;;;;;480400;247;27731;-73
2021/07/01 05:21:57;;;;;;;5.00;4.60;;;;;;;;;;480336;247;27483;-73
2021/07/01 05:24:00;;;;;;;4.73;3.97;;;;;;;;;;480387;247;27936;-72
2021/07/01 05:26:01;;;;;;;4.17;3.80;;;;;;;;;;480118;247;27553;-73
2021/07/01 05:28:03;;;;;;;4.47;4.07;;;;;;;;;;479940;247;27668;-73
2021/07/01 05:30:05;;;;;;;4.23;3.83;;;;;;;;;;480351;247;27558;-73
2021/07/01 05:32:07;;;;;;;4.40;4.03;;;;;;;;;;480375;247;27558;-73
2021/07/01 05:34:09;;;;;;;4.40;3.87;;;;;;;;;;480352;247;27638;-72
2021/07/01 05:36:12;;;;;;;4.20;3.80;;;;;;;;;;480234;247;27542;-73
2021/07/01 05:38:14;;;;;;;4.43;4.03;;;;;;;;;;480266;247;27609;-73
2021/07/01 05:40:18;;;;;;;4.10;3.80;;;;;;;;;;480175;247;27685;-73
2021/07/01 05:42:18;;;;;;;3.43;3.20;;;;;;;;;;480123;242;27564;-72
2021/07/01 05:44:20;;;;;;;4.20;3.90;;;;;;;;;;480368;247;27610;-72
2021/07/01 05:46:22;;;;;;;3.93;3.63;;;;;;;;;;480374;247;27562;-73
2021/07/01 05:48:26;;;;;;;4.20;3.80;;;;;;;;;;480383;247;27623;-72
2021/07/01 05:50:26;;;;;;;3.90;3.60;;;;;;;;;;480281;247;27536;-73
2021/07/01 05:52:31;;;;;;;3.63;3.33;;;;;;;;;;480363;247;27546;-72
2021/07/01 05:54:36;;;;;;;4.20;3.80;;;;;;;;;;480183;247;27618;-72
2021/07/01 05:56:39;;;;;;;4.30;3.90;;;;;;;;;;480209;247;27652;-73
2021/07/01 05:58:41;;;;;;;3.90;3.60;;;;;;;;;;480362;247;28070;-73
2021/07/01 06:00:43;;;;;;;3.90;3.60;;;;;;;;;;480410;247;27621;-73
2021/07/01 06:02:45;;;;;;;4.13;3.70;;;;;;;;;;480386;247;27550;-73
2021/07/01 06:04:47;;;;;;;4.30;3.90;;;;;;;;;;480390;247;27551;-72
2021/07/01 06:06:49;;;;;;;4.57;4.17;;;;;;;;;;480400;247;27663;-73
2021/07/01 06:08:51;;;;;;;4.00;3.67;;;;;;;;;;480380;247;27518;-73
2021/07/01 06:10:54;;;;;;;6.17;4.17;;;;;;;;;;480382;247;27519;-73
2021/07/01 06:12:55;;;;;;;4.20;3.80;;;;;;;;;;480404;247;27937;-73
2021/07/01 06:14:58;;;;;;;4.60;4.20;;;;;;;;;;480405;247;27502;-73
2021/07/01 06:17:00;;;;;;;5.00;4.10;;;;;;;;;;480386;247;27527;-73
2021/07/01 06:19:03;;;;;;;4.27;3.90;;;;;;;;;;480406;247;27566;-72
2021/07/01 06:21:04;;;;;;;6.13;4.60;;;;;;;;;;480327;247;27591;-73
2021/07/01 06:23:06;;;;;;;4.60;3.90;;;;;;;;;;480407;247;27556;-72
2021/07/01 06:25:08;;;;;;;4.80;4.37;;;;;;;;;;480398;247;27629;-73
2021/07/01 06:27:10;;;;;;;4.30;3.97;;;;;;;;;;480376;247;27502;-73
2021/07/01 06:29:12;;;;;;;4.57;4.00;;;;;;;;;;480412;247;27498;-73
2021/07/01 06:31:14;;;;;;;3.93;3.60;;;;;;;;;;480378;247;27499;-74
2021/07/01 06:33:18;;;;;;;4.10;3.80;;;;;;;;;;480386;247;27641;-73
2021/07/01 06:35:19;;;;;;;3.80;3.47;;;;;;;;;;480293;247;27503;-73
2021/07/01 06:37:21;;;;;;;4.43;4.03;;;;;;;;;;480366;247;27512;-73
2021/07/01 06:39:23;;;;;;;4.17;3.83;;;;;;;;;;480376;247;27495;-72
2021/07/01 06:41:25;;;;;;;3.50;3.30;;;;;;;;;;480405;247;27907;-73
2021/07/01 06:43:27;;;;;;;3.17;2.97;;;;;;;;;;480391;247;27503;-73
2021/07/01 06:45:29;;;;;;;3.70;3.37;;;;;;;;;;480402;247;27589;-73
2021/07/01 06:47:31;;;;;;;3.50;3.20;;;;;;;;;;480370;247;27503;-73
2021/07/01 06:49:33;;;;;;;4.50;3.33;;;;;;;;;;480412;247;27510;-72
2021/07/01 06:51:36;;;;;;;3.50;3.20;;;;;;;;;;480410;247;27499;-73
2021/07/01 06:53:38;;;;;;;3.50;3.17;;;;;;;;;;480389;247;27508;-73
2021/07/01 06:55:40;;;;;;;3.57;3.27;;;;;;;;;;480385;247;27578;-72
2021/07/01 06:57:42;;;;;;;3.27;3.07;;;;;;;;;;480414;247;27638;-72
2021/07/01 06:59:44;;;;;;;3.93;3.63;;;;;;;;;;480388;247;27655;-73
2021/07/01 07:01:46;;;;;;;3.70;3.40;;;;;;;;;;480353;247;27619;-73
2021/07/01 07:03:48;;;;;;;4.40;3.67;;;;;;;;;;480404;247;27586;-73
2021/07/01 07:05:50;;;;;;;3.63;3.33;;;;;;;;;;480432;247;27633;-72
2021/07/01 07:07:54;;;;;;;4.20;3.90;;;;;;;;;;480379;247;27637;-73
2021/07/01 07:09:55;;;;;;;3.60;3.20;;;;;;;;;;480301;247;27556;-72
2021/07/01 07:11:57;;;;;;;3.40;3.07;;;;;;;;;;480043;247;27583;-73
2021/07/01 07:13:59;;;;;;;3.63;3.00;;;;;;;;;;480336;247;27730;-73
2021/07/01 07:16:02;;;;;;;3.00;2.70;;;;;;;;;;480365;247;27533;-72
2021/07/01 07:18:03;;;;;;;2.80;2.60;;;;;;;;;;480357;247;27562;-73
2021/07/01 07:20:05;;;;;;;4.93;2.37;;;;;;;;;;480404;247;27533;-73
2021/07/01 07:22:07;;;;;;;3.57;3.27;;;;;;;;;;480391;247;27535;-72
2021/07/01 07:24:09;;;;;;;3.30;2.70;;;;;;;;;;480396;247;27527;-72
2021/07/01 07:26:12;;;;;;;3.37;2.83;;;;;;;;;;480370;247;27622;-73
2021/07/01 07:28:14;;;;;;;3.00;2.80;;;;;;;;;;480322;247;27588;-73
2021/07/01 07:30:16;;;;;;;2.90;2.60;;;;;;;;;;480396;247;27515;-73
2021/07/01 07:32:18;;;;;;;3.30;3.00;;;;;;;;;;480417;247;27569;-73
2021/07/01 07:34:20;;;;;;;2.47;2.30;;;;;;;;;;480373;247;27510;-72
2021/07/01 07:36:22;;;;;;;2.77;2.57;;;;;;;;;;480388;247;27527;-73
2021/07/01 07:38:24;;;;;;;2.40;2.20;;;;;;;;;;480388;247;27578;-73
2021/07/01 07:40:26;;;;;;;2.47;2.27;;;;;;;;;;480380;247;27531;-73
2021/07/01 07:42:28;;;;;;;2.57;2.37;;;;;;;;;;480405;247;27602;-73
2021/07/01 07:44:31;;;;;;;2.53;2.33;;;;;;;;;;480413;247;27522;-72
2021/07/01 07:46:33;;;;;;;2.33;2.23;;;;;;;;;;480392;247;28251;-73
2021/07/01 07:48:35;;;;;;;2.50;2.33;;;;;;;;;;480425;247;27554;-72
2021/07/01 07:50:37;;;;;;;2.33;2.17;;;;;;;;;;480389;247;27980;-73
2021/07/01 07:52:39;;;;;;;2.53;2.33;;;;;;;;;;480385;247;27550;-72
2021/07/01 07:54:41;;;;;;;2.70;2.50;;;;;;;;;;480368;247;27554;-73
2021/07/01 07:56:43;;;;;;;2.37;2.27;;;;;;;;;;480372;247;27526;-73
2021/07/01 07:58:45;;;;;;;2.40;2.30;;;;;;;;;;480392;247;27779;-73
2021/07/01 08:00:47;;;;;;;2.63;2.43;;;;;;;;;;480385;243;27532;-73
2021/07/01 08:02:50;;;;;;;2.33;2.23;;;;;;;;;;480392;247;27640;-73
2021/07/01 08:04:52;;;;;;;2.63;2.43;;;;;;;;;;480389;247;27573;-73
2021/07/01 08:06:54;;;;;;;2.40;2.30;;;;;;;;;;480398;247;27561;-73
2021/07/01 08:08:56;;;;;;;2.37;2.27;;;;;;;;;;480387;247;27531;-73
2021/07/01 08:10:58;;;;;;;3.27;3.07;;;;;;;;;;480362;247;27652;-73
2021/07/01 08:13:07;;;;;;;3.43;3.23;;;;;;;;;;480391;247;27598;-72
2021/07/01 08:15:08;;;;;;;2.90;2.70;;;;;;;;;;480330;247;27662;-73
2021/07/01 08:17:10;;;;;;;2.53;2.40;;;;;;;;;;480390;247;27620;-73
2021/07/01 08:19:12;;;;;;;3.37;3.17;;;;;;;;;;480371;247;27609;-73
2021/07/01 08:21:14;;;;;;;2.40;2.30;;;;;;;;;;480368;246;27535;-72
2021/07/01 08:23:16;;;;;;;4.53;2.60;;;;;;;;;;480357;247;27542;-73
2021/07/01 08:25:19;;;;;;;3.50;2.80;;;;;;;;;;480385;247;27539;-73
2021/07/01 08:27:21;;;;;;;3.40;3.10;;;;;;;;;;480366;247;27526;-73
2021/07/01 08:29:23;;;;;;;3.00;2.80;;;;;;;;;;480353;247;27518;-72
2021/07/01 08:31:25;;;;;;;2.70;2.50;;;;;;;;;;480395;247;27509;-73
2021/07/01 08:33:27;;;;;;;3.03;2.83;;;;;;;;;;480396;247;27612;-73
2021/07/01 08:35:29;;;;;;;3.60;3.30;;;;;;;;;;480364;247;27506;-73
2021/07/01 08:37:31;;;;;;;2.70;2.50;;;;;;;;;;480370;247;27597;-73
2021/07/01 08:39:33;;;;;;;2.80;2.60;;;;;;;;;;480371;247;27511;-72
2021/07/01 08:41:35;;;;;;;2.60;2.40;;;;;;;;;;480440;247;27939;-73
2021/07/01 08:43:38;;;;;;;2.50;2.33;;;;;;;;;;480389;247;27586;-73
2021/07/01 08:45:40;;;;;;;2.53;2.33;;;;;;;;;;480356;247;27530;-73
2021/07/01 08:47:42;;;;;;;2.70;2.50;;;;;;;;;;480367;247;27606;-73
2021/07/01 08:49:44;;;;;;;2.50;2.40;;;;;;;;;;480375;247;27521;-72
2021/07/01 08:51:47;;;;;;;2.30;2.20;;;;;;;;;;480383;246;27537;-73
2021/07/01 08:53:48;;;;;;;2.60;2.40;;;;;;;;;;480328;247;27991;-74
2021/07/01 08:55:51;;;;;;;2.40;2.20;;;;;;;;;;480389;247;27637;-73
2021/07/01 08:57:53;;;;;;;2.33;2.20;;;;;;;;;;480371;247;27542;-73
2021/07/01 08:59:55;;;;;;;2.63;2.47;;;;;;;;;;480387;247;27617;-73
2021/07/01 09:01:57;;;;;;;2.43;2.33;;;;;;;;;;480278;247;27565;-73
2021/07/01 09:03:59;;;;;;;2.40;2.20;;;;;;;;;;480386;247;27557;-72
2021/07/01 09:06:01;;;;;;;2.50;2.30;;;;;;;;;;480226;247;27566;-73
2021/07/01 09:08:03;;;;;;;2.90;2.70;;;;;;;;;;480425;247;27526;-73
2021/07/01 09:10:05;;;;;;;2.80;2.60;;;;;;;;;;480397;247;27543;-73
2021/07/01 09:12:07;;;;;;;2.50;2.30;;;;;;;;;;480385;247;27618;-73
2021/07/01 09:14:09;;;;;;;2.10;2.00;;;;;;;;;;480404;247;27661;-73
2021/07/01 09:16:11;;;;;;;2.57;2.37;;;;;;;;;;480406;247;27522;-73
2021/07/01 09:18:13;;;;;;;2.03;1.93;;;;;;;;;;480382;247;27625;-73
2021/07/01 09:20:19;;;;;;;2.70;2.50;;;;;;;;;;480380;247;27538;-73
2021/07/01 09:22:18;;;;;;;2.70;2.27;;;;;;;;;;479938;247;27525;-73
2021/07/01 09:24:20;;;;;;;2.10;2.00;;;;;;;;;;480384;247;27538;-73
2021/07/01 09:26:22;;;;;;;2.20;2.10;;;;;;;;;;480395;247;27523;-73
2021/07/01 09:28:24;;;;;;;2.60;2.40;;;;;;;;;;480368;247;27523;-73
2021/07/01 09:30:26;;;;;;;2.47;2.27;;;;;;;;;;480380;247;27658;-73
2021/07/01 09:32:28;;;;;;;2.83;2.40;;;;;;;;;;480411;247;27503;-73
2021/07/01 09:34:33;;;;;;;2.37;2.23;;;;;;;;;;480394;247;27509;-73
2021/07/01 09:36:32;;;;;;;2.30;2.20;;;;;;;;;;480259;245;27517;-73
2021/07/01 09:38:35;;;;;;;2.43;2.33;;;;;;;;;;480360;247;27511;-75
2021/07/01 09:40:37;;;;;;;2.80;2.60;;;;;;;;;;480403;247;27538;-73
2021/07/01 09:42:39;;;;;;;2.73;2.53;;;;;;;;;;480372;247;27512;-73
2021/07/01 09:44:41;;;;;;;2.50;2.30;;;;;;;;;;480409;247;27504;-73
2021/07/01 09:46:43;;;;;;;2.47;2.30;;;;;;;;;;480400;247;27541;-73
2021/07/01 09:48:47;;;;;;;2.13;2.03;;;;;;;;;;480385;247;27550;-73
2021/07/01 09:50:50;;;;;;;2.60;2.40;;;;;;;;;;480305;247;27539;-73
2021/07/01 09:52:49;;;;;;;2.80;2.60;;;;;;;;;;479957;247;27585;-72
2021/07/01 09:54:52;;;;;;;2.40;2.30;;;;;;;;;;480340;247;27547;-73
2021/07/01 09:56:54;;;;;;;2.83;2.63;;;;;;;;;;480379;247;27598;-74
2021/07/01 09:58:57;;;;;;;2.70;2.50;;;;;;;;;;480422;247;27950;-73
2021/07/01 10:00:58;;;;;;;2.90;2.70;;;;;;;;;;480363;247;27564;-73
2021/07/01 10:03:00;;;;;;;2.90;2.70;;;;;;;;;;480392;247;27632;-74
2021/07/01 10:05:02;;;;;;;3.20;3.00;;;;;;;;;;480393;247;27541;-73
2021/07/01 10:07:09;;;;;;;3.70;3.40;;;;;;;;;;480351;247;27547;-74
2021/07/01 10:09:07;;;;;;;3.67;3.37;;;;;;;;;;480073;247;27535;-73
2021/07/01 10:11:08;;;;;;;4.00;3.60;;;;;;;;;;480375;247;27515;-73
2021/07/01 10:13:11;;;;;;;3.43;3.13;;;;;;;;;;480400;247;27537;-73
2021/07/01 10:15:13;;;;;;;3.57;3.10;;;;;;;;;;480412;247;27569;-73
2021/07/01 10:17:15;;;;;;;3.03;2.77;;;;;;;;;;480394;247;27621;-73
2021/07/01 10:19:17;;;;;;;3.27;3.07;;;;;;;;;;480415;247;27586;-74
2021/07/01 10:21:19;;;;;;;3.67;3.33;;;;;;;;;;480393;247;27600;-73
2021/07/01 10:23:21;;;;;;;3.27;3.00;;;;;;;;;;480362;247;27538;-72
2021/07/01 10:25:23;;;;;;;3.40;3.10;;;;;;;;;;480415;247;27543;-73
2021/07/01 10:27:26;;;;;;;5.07;3.13;;;;;;;;;;480373;247;27627;-73
2021/07/01 10:29:27;;;;;;;3.20;3.00;;;;;;;;;;480373;247;27532;-73
2021/07/01 10:31:30;;;;;;;3.50;3.20;;;;;;;;;;480381;247;27546;-73
2021/07/01 10:33:32;;;;;;;3.97;3.10;;;;;;;;;;480385;247;27602;-73
2021/07/01 10:35:34;;;;;;;7.13;3.10;;;;;;;;;;480393;247;27605;-73
2021/07/01 10:37:36;;;;;;;3.10;2.90;;;;;;;;;;480383;247;27606;-73
2021/07/01 10:39:39;;;;;;;3.40;3.10;;;;;;;;;;480394;247;27578;-73
2021/07/01 10:41:43;;;;;;;3.00;2.80;;;;;;;;;;480331;247;27507;-74
2021/07/01 10:43:42;;;;;;;2.50;2.30;;;;;;;;;;480010;247;27485;-73
2021/07/01 10:45:44;;;;;;;2.77;2.57;;;;;;;;;;480399;247;27501;-73
2021/07/01 10:47:46;;;;;;;2.83;2.63;;;;;;;;;;480394;247;27582;-73
2021/07/01 10:49:49;;;;;;;3.00;2.80;;;;;;;;;;480386;247;27499;-73
2021/07/01 10:51:51;;;;;;;2.47;2.33;;;;;;;;;;480382;247;27551;-73
2021/07/01 10:53:53;;;;;;;2.80;2.60;;;;;;;;;;480399;247;27507;-73
2021/07/01 10:55:55;;;;;;;2.73;2.40;;;;;;;;;;480336;247;27510;-73
2021/07/01 10:57:57;;;;;;;3.53;2.80;;;;;;;;;;480414;247;27540;-73
2021/07/01 10:59:59;;;;;;;2.70;2.40;;;;;;;;;;480415;247;27506;-73
2021/07/01 11:02:01;;;;;;;2.93;2.73;;;;;;;;;;480415;247;27539;-73
2021/07/01 11:04:03;;;;;;;3.10;2.90;;;;;;;;;;480396;247;27515;-73
2021/07/01 11:06:05;;;;;;;2.93;2.70;;;;;;;;;;480348;247;27657;-73
2021/07/01 11:08:08;;;;;;;3.67;3.37;;;;;;;;;;480351;247;27574;-73
2021/07/01 11:10:10;;;;;;;3.53;3.27;;;;;;;;;;480299;247;27614;-73
2021/07/01 11:12:12;;;;;;;3.10;2.87;;;;;;;;;;480405;247;27543;-73
2021/07/01 11:14:14;;;;;;;3.40;3.10;;;;;;;;;;480369;245;27558;-73
2021/07/01 11:16:16;;;;;;;3.17;2.97;;;;;;;;;;480381;247;27660;-73
2021/07/01 11:18:18;;;;;;;3.87;3.57;;;;;;;;;;480381;247;27552;-73
2021/07/01 11:20:20;;;;;;;4.20;3.80;;;;;;;;;;480379;247;27542;-73
2021/07/01 11:22:22;;;;;;;4.03;3.57;;;;;;;;;;480378;247;27617;-73
2021/07/01 11:24:25;;;;;;;3.50;3.20;;;;;;;;;;480366;247;27645;-73
2021/07/01 11:26:27;;;;;;;3.90;3.50;;;;;;;;;;480373;247;27555;-73
2021/07/01 11:28:29;;;;;;;3.63;3.10;;;;;;;;;;480389;247;27559;-73
2021/07/01 11:30:31;;;;;;;3.40;3.20;;;;;;;;;;480368;247;27540;-72
2021/07/01 11:32:33;;;;;;;4.30;3.27;;;;;;;;;;480380;247;27636;-73
2021/07/01 11:34:35;;;;;;;4.10;3.80;;;;;;;;;;480379;247;27543;-72
2021/07/01 11:36:37;;;;;;;4.53;3.97;;;;;;;;;;480374;247;27549;-72
2021/07/01 11:38:39;;;;;;;3.90;3.60;;;;;;;;;;480378;247;27535;-73
2021/07/01 11:40:41;;;;;;;4.93;3.17;;;;;;;;;;480393;247;27554;-72
2021/07/01 11:42:44;;;;;;;3.60;3.30;;;;;;;;;;480353;247;27527;-73
2021/07/01 11:44:46;;;;;;;6.07;3.40;;;;;;;;;;480355;247;27528;-73
2021/07/01 11:46:48;;;;;;;4.10;3.70;;;;;;;;;;480373;247;27607;-73
2021/07/01 11:48:52;;;;;;;3.50;3.20;;;;;;;;;;480375;247;27506;-73
2021/07/01 11:50:52;;;;;;;3.90;3.60;;;;;;;;;;480226;247;27507;-73
2021/07/01 11:52:54;;;;;;;3.73;3.40;;;;;;;;;;480399;247;27503;-73
2021/07/01 11:54:56;;;;;;;3.60;3.30;;;;;;;;;;480378;247;27586;-73
2021/07/01 11:57:00;;;;;;;3.60;3.30;;;;;;;;;;480344;247;27619;-72
2021/07/01 11:59:00;;;;;;;3.60;3.30;;;;;;;;;;480317;242;27571;-73
2021/07/01 12:01:03;;;;;;;3.20;3.00;;;;;;;;;;480344;247;27681;-72
2021/07/01 12:03:05;;;;;;;4.13;3.43;;;;;;;;;;480344;247;27712;-72
2021/07/01 12:05:07;;;;;;;4.73;3.80;;;;;;;;;;480302;247;27606;-72
2021/07/01 12:07:09;;;;;;;3.30;3.00;;;;;;;;;;480294;247;27518;-72
2021/07/01 12:09:11;;;;;;;4.37;4.00;;;;;;;;;;480353;246;27507;-72
2021/07/01 12:11:13;;;;;;;4.00;3.50;;;;;;;;;;480361;247;27514;-73